createdAt,value
2018-11-21T00:02:33.447Z,99969.92
2018-11-21T00:05:00.854Z,99969.09
2018-11-21T00:07:30.566Z,99967.89
2018-11-21T00:09:57.968Z,99970.39
2018-11-21T00:14:52.671Z,99980.22
2018-11-21T00:17:20.099Z,99978.64
2018-11-21T00:22:14.732Z,99980.42
2018-11-21T00:24:41.887Z,99981.93
2018-11-21T00:29:36.257Z,99981.30
2018-11-21T00:32:03.437Z,99981.15
2018-11-21T00:36:58.175Z,99975.61
2018-11-21T00:39:25.423Z,99978.45
2018-11-21T00:41:52.865Z,99987.13
2018-11-21T00:44:20.320Z,99993.83
2018-11-21T00:46:48.122Z,99996.59
2018-11-21T00:49:15.544Z,99993.03
2018-11-21T00:51:42.709Z,99993.50
2018-11-21T00:54:09.942Z,99997.19
2018-11-21T00:59:04.093Z,99994.73
2018-11-21T01:03:58.280Z,99998.41
2018-11-21T01:06:25.695Z,99994.48
2018-11-21T01:11:20.444Z,99992.11
2018-11-21T01:13:47.663Z,99997.64
2018-11-21T01:18:42.077Z,99994.78
2018-11-21T01:23:36.226Z,99995.73
2018-11-21T01:26:03.367Z,99996.10
2018-11-21T01:30:57.891Z,99996.66
2018-11-21T01:33:26.010Z,99998.02
2018-11-21T01:38:20.380Z,100003.06
2018-11-21T01:40:47.884Z,100000.27
2018-11-21T01:45:42.338Z,99995.38
2018-11-21T01:48:09.755Z,99998.20
2018-11-21T01:50:37.676Z,100002.13
2018-11-21T01:53:04.840Z,100002.06
2018-11-21T01:55:32.046Z,100003.47
2018-11-21T01:57:59.753Z,99996.28
2018-11-21T02:00:27.171Z,99996.09
2018-11-21T02:02:54.408Z,99997.12
2018-11-21T02:07:48.597Z,100000.80
2018-11-21T02:10:15.779Z,100000.17
2018-11-21T02:15:10.102Z,100001.47
2018-11-21T02:17:37.546Z,99999.34
2018-11-21T02:20:06.726Z,99996.57
2018-11-21T02:22:34.123Z,100000.56
2018-11-21T02:25:01.235Z,99996.41
2018-11-21T02:27:28.772Z,100000.23
2018-11-21T02:29:56.049Z,99999.67
2018-11-21T02:32:23.245Z,100000.89
2018-11-21T02:34:50.643Z,99999.21
2018-11-21T02:37:17.841Z,100003.32
2018-11-21T02:39:45.037Z,100001.65
2018-11-21T02:44:39.902Z,99998.46
2018-11-21T02:47:07.080Z,100000.09
2018-11-21T02:49:34.311Z,100004.27
2018-11-21T02:54:28.686Z,100006.39
2018-11-21T02:59:45.806Z,100008.73
2018-11-21T03:02:13.294Z,100010.33
2018-11-21T03:04:40.833Z,100019.03
2018-11-21T03:07:08.150Z,100017.91
2018-11-21T03:09:35.693Z,100020.56
2018-11-21T03:12:04.019Z,100022.79
2018-11-21T03:14:31.299Z,100016.27
2018-11-21T03:16:58.581Z,100011.73
2018-11-21T03:19:26.346Z,100019.94
2018-11-21T03:21:53.569Z,100022.92
2018-11-21T03:24:20.804Z,100020.54
2018-11-21T03:26:48.420Z,100020.19
2018-11-21T03:29:15.869Z,100020.95
2018-11-21T03:31:43.204Z,100020.97
2018-11-21T03:36:37.685Z,100017.92
2018-11-21T03:39:07.885Z,100015.17
2018-11-21T03:44:03.802Z,100019.98
2018-11-21T03:48:59.517Z,100024.62
2018-11-21T03:51:26.919Z,100019.78
2018-11-21T03:56:21.335Z,100024.73
2018-11-21T03:58:48.834Z,100020.53
2018-11-21T04:01:16.223Z,100018.77
2018-11-21T04:03:43.915Z,100017.98
2018-11-21T04:06:11.331Z,100019.72
2018-11-21T04:08:42.731Z,100027.39
2018-11-21T04:11:06.360Z,100031.76
2018-11-21T04:13:33.842Z,100026.02
2018-11-21T04:16:01.571Z,100027.64
2018-11-21T04:18:29.109Z,100027.17
2018-11-21T04:20:56.256Z,100028.54
2018-11-21T04:23:23.464Z,100036.89
2018-11-21T04:25:50.915Z,100033.33
2018-11-21T04:28:18.083Z,100038.06
2018-11-21T04:33:12.845Z,100048.84
2018-11-21T04:35:40.439Z,100050.47
2018-11-21T04:38:08.074Z,100046.64
2018-11-21T04:40:35.542Z,100044.56
2018-11-21T04:43:03.129Z,100048.34
2018-11-21T04:45:30.318Z,100053.69
2018-11-21T04:47:57.755Z,100063.19
2018-11-21T04:52:52.190Z,100066.18
2018-11-21T04:55:19.666Z,100071.73
2018-11-21T04:57:46.942Z,100072.78
2018-11-21T05:00:14.153Z,100072.31
2018-11-21T05:02:41.329Z,100077.73
2018-11-21T05:07:36.777Z,100077.62
2018-11-21T05:10:05.387Z,100075.51
2018-11-21T05:14:59.491Z,100080.66
2018-11-21T05:17:26.923Z,100082.08
2018-11-21T05:22:21.860Z,100084.85
2018-11-21T05:24:49.642Z,100092.53
2018-11-21T05:29:44.618Z,100092.53
2018-11-21T05:34:38.976Z,100085.01
2018-11-21T05:39:33.013Z,100090.74
2018-11-21T05:42:00.528Z,100097.14
2018-11-21T05:44:31.483Z,100094.05
2018-11-21T05:46:55.665Z,100096.12
2018-11-21T05:49:23.613Z,100098.32
2018-11-21T05:51:52.503Z,100097.52
2018-11-21T05:54:19.887Z,100102.26
2018-11-21T05:56:47.048Z,100097.52
2018-11-21T06:04:08.734Z,100114.33
2018-11-21T06:06:36.124Z,100113.62
2018-11-21T06:11:34.096Z,100116.73
2018-11-21T06:14:01.408Z,100122.24
2018-11-21T06:18:55.620Z,100124.56
2018-11-21T06:21:22.960Z,100131.33
2018-11-21T06:26:21.232Z,100130.24
2018-11-21T06:28:49.016Z,100136.59
2018-11-21T06:33:43.358Z,100134.56
2018-11-21T06:36:11.269Z,100132.27
2018-11-21T06:38:38.739Z,100132.32
2018-11-21T06:41:06.008Z,100140.05
2018-11-21T06:43:33.201Z,100155.14
2018-11-21T06:46:00.989Z,100154.63
2018-11-21T06:48:28.193Z,100157.26
2018-11-21T06:50:55.508Z,100160.80
2018-11-21T06:53:23.004Z,100163.06
2018-11-21T06:55:50.849Z,100169.16
2018-11-21T06:58:18.043Z,100165.41
2018-11-21T07:00:45.484Z,100167.37
2018-11-21T07:03:12.677Z,100174.84
2018-11-21T07:05:39.898Z,100176.48
2018-11-21T07:08:07.400Z,100176.61
2018-11-21T07:10:34.561Z,100175.02
2018-11-21T07:13:01.959Z,100178.19
2018-11-21T07:15:29.373Z,100184.55
2018-11-21T07:17:56.782Z,100179.70
2018-11-21T07:20:24.042Z,100185.30
2018-11-21T07:25:20.177Z,100184.05
2018-11-21T07:27:47.333Z,100185.85
2018-11-21T07:30:15.499Z,100184.58
2018-11-21T07:32:42.624Z,100190.13
2018-11-21T07:35:17.728Z,100191.11
2018-11-21T07:37:40.984Z,100192.09
2018-11-21T07:40:09.776Z,100199.30
2018-11-21T07:42:37.226Z,100199.41
2018-11-21T07:45:10.115Z,100200.73
2018-11-21T07:47:38.264Z,100201.98
2018-11-21T07:50:09.097Z,100202.99
2018-11-21T07:52:36.771Z,100209.87
2018-11-21T07:55:04.149Z,100213.37
2018-11-21T07:57:38.755Z,100212.31
2018-11-21T08:01:25.311Z,100214.92
2018-11-21T08:03:54.242Z,100215.86
2018-11-21T08:06:41.447Z,100216.45
2018-11-21T08:09:38.735Z,100217.81
2018-11-21T08:12:25.695Z,100218.22
2018-11-21T08:15:19.094Z,100217.94
2018-11-21T08:18:08.973Z,100227.59
2018-11-21T08:21:01.866Z,100234.08
2018-11-21T08:23:47.478Z,100239.09
2018-11-21T08:26:42.050Z,100241.38
2018-11-21T08:29:09.988Z,100241.83
2018-11-21T08:31:37.271Z,100248.67
2018-11-21T08:34:04.508Z,100250.87
2018-11-21T08:36:38.504Z,100254.28
2018-11-21T08:39:07.943Z,100256.42
2018-11-21T08:41:35.094Z,100258.28
2018-11-21T08:44:09.067Z,100262.86
2018-11-21T08:46:36.728Z,100265.22
2018-11-21T08:49:04.168Z,100263.67
2018-11-21T08:51:31.708Z,100265.98
2018-11-21T08:53:59.185Z,100262.77
2018-11-21T08:56:26.364Z,100264.08
2018-11-21T08:58:53.739Z,100259.03
2018-11-21T09:01:21.049Z,100260.72
2018-11-21T09:03:48.522Z,100264.17
2018-11-21T09:06:16.419Z,100257.34
2018-11-21T09:08:43.854Z,100259.88
2018-11-21T09:11:11.016Z,100264.16
2018-11-21T09:13:38.223Z,100263.00
2018-11-21T09:16:05.350Z,100269.48
2018-11-21T09:18:32.823Z,100269.50
2018-11-21T09:21:01.128Z,100279.25
2018-11-21T09:23:28.427Z,100276.05
2018-11-21T09:25:56.396Z,100284.96
2018-11-21T09:28:24.122Z,100290.75
2018-11-21T09:30:51.675Z,100285.45
2018-11-21T09:33:18.880Z,100282.97
2018-11-21T09:35:46.605Z,100283.73
2018-11-21T09:38:13.990Z,100287.59
2018-11-21T09:40:41.205Z,100290.54
2018-11-21T09:43:09.273Z,100284.02
2018-11-21T09:45:36.469Z,100282.95
2018-11-21T09:48:03.952Z,100281.88
2018-11-21T09:50:32.681Z,100287.55
2018-11-21T09:52:59.992Z,100287.20
2018-11-21T09:55:27.426Z,100292.02
2018-11-21T09:57:55.538Z,100284.42
2018-11-21T10:01:31.448Z,100287.64
2018-11-21T10:04:01.007Z,100286.28
2018-11-21T10:06:29.512Z,100285.81
2018-11-21T10:09:01.486Z,100288.95
2018-11-21T10:11:29.984Z,100270.20
2018-11-21T10:13:57.220Z,100269.59
2018-11-21T10:16:24.645Z,100275.38
2018-11-21T10:18:53.311Z,100271.28
2018-11-21T10:21:22.387Z,100279.25
2018-11-21T10:23:49.662Z,100273.91
2018-11-21T10:26:16.867Z,100275.54
2018-11-21T10:28:44.789Z,100275.22
2018-11-21T10:31:12.253Z,100279.67
2018-11-21T10:33:39.519Z,100278.92
2018-11-21T10:36:06.682Z,100274.20
2018-11-21T10:38:34.552Z,100275.84
2018-11-21T10:41:01.717Z,100276.24
2018-11-21T10:43:29.499Z,100276.38
2018-11-21T10:45:57.333Z,100276.55
2018-11-21T10:48:25.275Z,100276.80
2018-11-21T10:50:52.486Z,100277.80
2018-11-21T10:53:20.787Z,100282.30
2018-11-21T10:55:48.062Z,100279.23
2018-11-21T10:58:15.282Z,100278.38
2018-11-21T11:01:01.508Z,100278.20
2018-11-21T11:03:34.287Z,100277.37
2018-11-21T11:06:27.533Z,100277.92
2018-11-21T11:09:29.424Z,100280.27
2018-11-21T11:12:22.724Z,100282.32
2018-11-21T11:15:09.764Z,100288.46
2018-11-21T11:17:59.443Z,100288.85
2018-11-21T11:20:49.032Z,100292.34
2018-11-21T11:23:33.291Z,100286.69
2018-11-21T11:26:26.096Z,100286.06
2018-11-21T11:29:25.516Z,100287.77
2018-11-21T11:32:30.291Z,100287.18
2018-11-21T11:35:22.919Z,100287.97
2018-11-21T11:38:10.770Z,100291.44
2018-11-21T11:41:09.270Z,100294.82
2018-11-21T11:43:54.875Z,100295.84
2018-11-21T11:46:50.624Z,100298.94
2018-11-21T11:49:42.435Z,100302.48
2018-11-21T11:52:29.603Z,100288.59
2018-11-21T11:55:22.093Z,100290.59
2018-11-21T11:58:08.946Z,100298.37
2018-11-21T12:00:54.856Z,100299.27
2018-11-21T12:03:40.384Z,100295.66
2018-11-21T12:06:16.585Z,100293.43
2018-11-21T12:09:02.512Z,100302.27
2018-11-21T12:11:48.284Z,100294.06
2018-11-21T12:14:26.937Z,100294.09
2018-11-21T12:17:14.124Z,100292.55
2018-11-21T12:19:52.365Z,100287.31
2018-11-21T12:22:33.981Z,100288.62
2018-11-21T12:25:32.994Z,100292.77
2018-11-21T12:28:20.610Z,100295.61
2018-11-21T12:30:57.783Z,100288.50
2018-11-21T12:33:36.210Z,100288.66
2018-11-21T12:36:28.251Z,100288.84
2018-11-21T12:39:13.985Z,100287.77
2018-11-21T12:42:18.875Z,100290.82
2018-11-21T12:45:04.997Z,100286.80
2018-11-21T12:47:43.588Z,100287.16
2018-11-21T12:50:33.418Z,100286.09
2018-11-21T12:53:18.823Z,100286.80
2018-11-21T12:56:20.879Z,100293.00
2018-11-21T12:59:06.730Z,100289.83
2018-11-21T13:01:42.714Z,100290.64
2018-11-21T13:04:28.623Z,100291.95
2018-11-21T13:07:09.121Z,100293.64
2018-11-21T13:09:56.792Z,100298.34
2018-11-21T13:12:40.886Z,100297.02
2018-11-21T13:15:26.588Z,100307.11
2018-11-21T13:18:12.077Z,100304.86
2018-11-21T13:20:57.462Z,100306.72
2018-11-21T13:23:56.724Z,100310.45
2018-11-21T13:26:42.016Z,100303.75
2018-11-21T13:29:27.589Z,100312.62
2018-11-21T13:32:12.856Z,100316.42
2018-11-21T13:34:58.609Z,100317.97
2018-11-21T13:37:53.222Z,100319.64
2018-11-21T13:40:38.673Z,100321.02
2018-11-21T13:43:23.936Z,100317.31
2018-11-21T13:46:29.419Z,100326.67
2018-11-21T13:49:19.446Z,100331.59
2018-11-21T13:52:09.206Z,100326.55
2018-11-21T13:55:04.930Z,100331.16
2018-11-21T13:57:32.563Z,100326.54
2018-11-21T14:00:00.159Z,100327.07
2018-11-21T14:02:27.647Z,100329.38
2018-11-21T14:04:55.212Z,100329.39
2018-11-21T14:07:22.845Z,100328.97
2018-11-21T14:09:50.128Z,100333.25
2018-11-21T14:12:17.383Z,100339.53
2018-11-21T14:14:44.749Z,100333.51
2018-11-21T14:17:11.929Z,100336.97
2018-11-21T14:19:39.390Z,100339.34
2018-11-21T14:22:06.579Z,100340.15
2018-11-21T14:24:34.101Z,100334.94
2018-11-21T14:27:01.521Z,100333.53
2018-11-21T14:29:28.687Z,100335.38
2018-11-21T14:31:55.871Z,100329.88
2018-11-21T14:34:23.152Z,100339.16
2018-11-21T14:36:50.321Z,100341.23
2018-11-21T14:39:17.668Z,100339.20
2018-11-21T14:41:46.172Z,100343.66
2018-11-21T14:44:13.377Z,100339.14
2018-11-21T14:46:42.462Z,100339.24
2018-11-21T14:49:12.014Z,100333.92
2018-11-21T14:51:39.184Z,100339.55
2018-11-21T14:54:07.075Z,100350.49
2018-11-21T14:56:34.429Z,100354.09
2018-11-21T14:59:02.131Z,100351.39
2018-11-21T15:01:29.353Z,100350.59
2018-11-21T15:03:56.664Z,100355.59
2018-11-21T15:06:23.914Z,100358.06
2018-11-21T15:08:52.094Z,100363.00
2018-11-21T15:11:19.332Z,100363.96
2018-11-21T15:13:46.524Z,100368.43
2018-11-21T15:16:13.691Z,100374.98
2018-11-21T15:18:41.064Z,100373.18
2018-11-21T15:21:09.124Z,100378.61
2018-11-21T15:23:36.702Z,100378.80
2018-11-21T15:26:04.134Z,100374.72
2018-11-21T15:28:31.627Z,100376.16
2018-11-21T15:31:02.072Z,100370.84
2018-11-21T15:33:29.575Z,100377.42
2018-11-21T15:35:56.720Z,100379.34
2018-11-21T15:38:24.423Z,100376.91
2018-11-21T15:40:51.985Z,100375.47
2018-11-21T15:43:19.228Z,100381.11
2018-11-21T15:45:46.841Z,100381.38
2018-11-21T15:48:14.038Z,100386.22
2018-11-21T15:50:41.201Z,100385.15
2018-11-21T15:53:08.499Z,100388.30
2018-11-21T15:55:35.739Z,100389.84
2018-11-21T15:58:02.921Z,100388.66
2018-11-21T16:00:32.333Z,100392.19
2018-11-21T16:03:10.393Z,100393.59
2018-11-21T16:05:37.698Z,100392.52
2018-11-21T16:08:05.217Z,100403.86
2018-11-21T16:10:39.578Z,100401.56
2018-11-21T16:13:07.358Z,100405.66
2018-11-21T16:15:38.742Z,100406.30
2018-11-21T16:18:05.934Z,100411.30
2018-11-21T16:20:33.396Z,100413.20
2018-11-21T16:23:00.767Z,100417.32
2018-11-21T16:25:27.906Z,100420.06
2018-11-21T16:27:55.216Z,100421.13
2018-11-21T16:30:23.731Z,100420.19
2018-11-21T16:32:51.173Z,100418.61
2018-11-21T16:35:18.702Z,100423.34
2018-11-21T16:37:45.959Z,100423.93
2018-11-21T16:40:15.645Z,100428.34
2018-11-21T16:42:42.942Z,100433.27
2018-11-21T16:45:12.117Z,100430.25
2018-11-21T16:47:39.539Z,100428.47
2018-11-21T16:50:10.024Z,100432.99
2018-11-21T16:52:37.403Z,100431.09
2018-11-21T16:55:06.732Z,100432.23
2018-11-21T16:57:34.353Z,100436.87
2018-11-21T17:00:01.525Z,100439.80
2018-11-21T17:02:28.693Z,100436.84
2018-11-21T17:04:56.043Z,100436.03
2018-11-21T17:07:24.252Z,100433.70
2018-11-21T17:09:51.978Z,100430.94
2018-11-21T17:12:19.194Z,100437.55
2018-11-21T17:14:46.340Z,100435.95
2018-11-21T17:17:13.766Z,100433.23
2018-11-21T17:19:40.983Z,100433.61
2018-11-21T17:22:08.192Z,100432.16
2018-11-21T17:24:35.423Z,100435.95
2018-11-21T17:27:02.580Z,100434.26
2018-11-21T17:29:29.762Z,100441.10
2018-11-21T17:31:57.170Z,100443.28
2018-11-21T17:34:24.381Z,100438.17
2018-11-21T17:36:51.557Z,100441.31
2018-11-21T17:39:19.184Z,100451.44
2018-11-21T17:41:46.338Z,100448.70
2018-11-21T17:44:14.072Z,100452.06
2018-11-21T17:46:41.323Z,100455.92
2018-11-21T17:49:15.660Z,100458.19
2018-11-21T17:51:40.669Z,100451.00
2018-11-21T17:54:08.360Z,100452.86
2018-11-21T17:56:35.971Z,100453.66
2018-11-21T17:59:03.358Z,100458.20
2018-11-21T18:01:30.539Z,100458.89
2018-11-21T18:03:58.257Z,100459.55
2018-11-21T18:06:26.451Z,100456.45
2018-11-21T18:08:54.049Z,100459.66
2018-11-21T18:11:23.066Z,100463.45
2018-11-21T18:13:50.217Z,100468.58
2018-11-21T18:16:18.014Z,100469.73
2018-11-21T18:18:45.343Z,100464.39
2018-11-21T18:21:13.952Z,100468.42
2018-11-21T18:23:40.271Z,100470.02
2018-11-21T18:26:07.481Z,100465.28
2018-11-21T18:28:35.240Z,100466.28
2018-11-21T18:31:02.424Z,100463.72
2018-11-21T18:33:31.748Z,100466.58
2018-11-21T18:35:58.939Z,100467.12
2018-11-21T18:38:26.341Z,100467.12
2018-11-21T18:40:53.528Z,100472.57
2018-11-21T18:43:20.741Z,100473.17
2018-11-21T18:45:49.227Z,100472.90
2018-11-21T18:48:16.398Z,100477.22
2018-11-21T18:50:43.574Z,100479.22
2018-11-21T18:53:17.884Z,100480.56
2018-11-21T18:55:59.694Z,100477.36
2018-11-21T18:59:04.503Z,100476.89
2018-11-21T19:01:32.039Z,100475.49
2018-11-21T19:03:59.492Z,100472.57
2018-11-21T19:06:27.240Z,100469.83
2018-11-21T19:08:54.410Z,100469.02
2018-11-21T19:11:21.598Z,100465.64
2018-11-21T19:13:49.015Z,100467.06
2018-11-21T19:16:16.465Z,100471.42
2018-11-21T19:18:43.698Z,100472.53
2018-11-21T19:21:11.032Z,100477.87
2018-11-21T19:23:38.218Z,100479.92
2018-11-21T19:26:05.453Z,100475.38
2018-11-21T19:28:32.898Z,100473.91
2018-11-21T19:31:00.120Z,100479.86
2018-11-21T19:33:27.366Z,100485.44
2018-11-21T19:35:54.568Z,100483.50
2018-11-21T19:38:21.802Z,100490.45
2018-11-21T19:40:49.510Z,100490.92
2018-11-21T19:43:16.761Z,100494.97
2018-11-21T19:45:44.322Z,100497.52
2018-11-21T19:48:11.948Z,100494.63
2018-11-21T19:50:39.369Z,100498.36
2018-11-21T19:53:06.771Z,100499.59
2018-11-21T19:55:34.766Z,100501.03
2018-11-21T19:58:02.180Z,100503.16
2018-11-21T20:00:30.831Z,100503.38
2018-11-21T20:02:58.101Z,100509.36
2018-11-21T20:05:25.409Z,100504.39
2018-11-21T20:07:53.246Z,100504.65
2018-11-21T20:10:21.460Z,100504.17
2018-11-21T20:12:48.692Z,100503.70
2018-11-21T20:15:17.737Z,100505.95
2018-11-21T20:17:46.669Z,100505.70
2018-11-21T20:20:15.299Z,100507.89
2018-11-21T20:22:43.172Z,100506.27
2018-11-21T20:25:11.992Z,100507.70
2018-11-21T20:27:39.189Z,100508.56
2018-11-21T20:30:14.642Z,100513.61
2018-11-21T20:32:41.905Z,100506.16
2018-11-21T20:35:09.884Z,100506.03
2018-11-21T20:37:37.290Z,100505.11
2018-11-21T20:40:11.664Z,100504.62
2018-11-21T20:42:38.826Z,100509.58
2018-11-21T20:45:11.272Z,100504.73
2018-11-21T20:47:39.198Z,100498.98
2018-11-21T20:50:06.626Z,100503.47
2018-11-21T20:52:33.798Z,100500.86
2018-11-21T20:55:00.998Z,100503.23
2018-11-21T20:57:28.199Z,100506.03
2018-11-21T20:59:55.554Z,100504.73
2018-11-21T21:02:22.746Z,100506.92
2018-11-21T21:04:50.172Z,100506.16
2018-11-21T21:07:22.405Z,100507.87
2018-11-21T21:09:53.023Z,100504.56
2018-11-21T21:12:20.262Z,100506.77
2018-11-21T21:14:47.622Z,100504.91
2018-11-21T21:17:14.847Z,100512.72
2018-11-21T21:19:42.358Z,100520.44
2018-11-21T21:22:18.463Z,100520.24
2018-11-21T21:24:42.887Z,100518.83
2018-11-21T21:27:10.148Z,100520.52
2018-11-21T21:29:37.795Z,100517.84
2018-11-21T21:32:05.058Z,100522.44
2018-11-21T21:34:32.218Z,100520.93
2018-11-21T21:36:59.654Z,100517.92
2018-11-21T21:39:26.871Z,100520.55
2018-11-21T21:41:54.201Z,100514.45
2018-11-21T21:44:21.718Z,100525.23
2018-11-21T21:46:49.293Z,100524.22
2018-11-21T21:49:16.784Z,100532.17
2018-11-21T21:51:44.277Z,100525.48
2018-11-21T21:54:11.456Z,100519.91
2018-11-21T21:56:38.987Z,100529.31
2018-11-21T21:59:06.220Z,100527.20
2018-11-21T22:01:33.464Z,100529.68
2018-11-21T22:04:00.992Z,100523.97
2018-11-21T22:06:28.540Z,100527.12
2018-11-21T22:08:55.954Z,100525.78
2018-11-21T22:11:23.282Z,100531.14
2018-11-21T22:13:50.499Z,100534.98
2018-11-21T22:16:18.140Z,100534.91
2018-11-21T22:18:46.191Z,100530.20
2018-11-21T22:21:13.660Z,100532.02
2018-11-21T22:23:40.915Z,100536.08
2018-11-21T22:26:08.542Z,100539.97
2018-11-21T22:28:36.065Z,100533.83
2018-11-21T22:31:03.454Z,100531.45
2018-11-21T22:33:30.890Z,100528.30
2018-11-21T22:36:02.761Z,100529.80
2018-11-21T22:38:30.824Z,100529.67
2018-11-21T22:40:53.381Z,100532.20
2018-11-21T22:43:20.566Z,100528.36
2018-11-21T22:45:47.752Z,100531.31
2018-11-21T22:48:15.516Z,100536.03
2018-11-21T22:50:42.698Z,100538.83
2018-11-21T22:53:09.957Z,100540.16
2018-11-21T22:55:37.688Z,100536.79
2018-11-21T22:58:05.279Z,100538.75
2018-11-21T23:00:45.794Z,100541.64
2018-11-21T23:03:13.893Z,100540.20
2018-11-21T23:05:41.032Z,100532.81
2018-11-21T23:08:08.787Z,100532.25
2018-11-21T23:10:38.991Z,100530.44
2018-11-21T23:13:13.169Z,100526.55
2018-11-21T23:15:40.489Z,100528.09
2018-11-21T23:18:07.960Z,100527.77
2018-11-21T23:20:35.455Z,100529.67
2018-11-21T23:23:02.907Z,100532.55
2018-11-21T23:25:30.051Z,100544.48
2018-11-21T23:27:57.473Z,100546.93
2018-11-21T23:30:24.639Z,100544.20
2018-11-21T23:32:52.027Z,100549.22
2018-11-21T23:35:19.943Z,100547.52
2018-11-21T23:37:47.287Z,100545.87
2018-11-21T23:40:15.143Z,100541.06
2018-11-21T23:42:44.029Z,100540.74
2018-11-21T23:45:12.692Z,100543.76
2018-11-21T23:47:39.870Z,100549.31
2018-11-21T23:50:08.505Z,100545.63
2018-11-21T23:52:36.033Z,100544.95
2018-11-21T23:55:03.453Z,100547.24
2018-11-21T23:57:30.792Z,100538.28
2018-11-21T23:59:58.334Z,100545.48
